Cosco Tengfei — HPMO — position and weather

sailwx.info

Track history (hours):
 
Tides and Currents Weather Stations Pressure Air Temp Water Temp Dewpoint Dewpoint Depression Visibility Wind Speed Wind Dir Waves Ship Positions

Cosco Tengfei

Last reported at 2017-Sep-26 19:59 UTC. Time now 2017-Sep-26 21:41 UTC.
Position N 29°44' W 095°17'.

Length 183 m; draft 7.9 m.

Type: Cargo ship. MMSI: 355518000.

Date/timePositionNaut miles runAvg speedWind from/ knotsBaromVisibWave heightAir tempDewpointWater temp
2017-Sep-26 19:59N 29°44' W 095°17'0 0.0
2017-Sep-26 19:29N 29°44' W 095°17'0 0.0
2017-Sep-26 18:41N 29°44' W 095°17'0 0.0
2017-Sep-26 18:29N 29°44' W 095°17'0 0.0
2017-Sep-26 17:14N 29°44' W 095°17'0 0.0
2017-Sep-26 16:59N 29°44' W 095°17'0 0.0
2017-Sep-26 16:20N 29°44' W 095°17'0 0.0
2017-Sep-26 15:59N 29°44' W 095°17'0 0.0
2017-Sep-26 15:29N 29°44' W 095°17'0 0.0
2017-Sep-26 14:50N 29°44' W 095°17'0 0.0
2017-Sep-26 14:29N 29°44' W 095°17'0 0.0
2017-Sep-26 13:35N 29°44' W 095°17'0 0.0
2017-Sep-26 13:29N 29°44' W 095°17'0 0.0
2017-Sep-26 12:20N 29°44' W 095°17'0 0.0
2017-Sep-26 11:47N 29°44' W 095°17'0 0.0
2017-Sep-26 11:29N 29°44' W 095°17'0 0.0
2017-Sep-26 10:56N 29°44' W 095°17'0 0.0
2017-Sep-26 10:26N 29°44' W 095°17'0 0.0
2017-Sep-26 09:56N 29°44' W 095°17'0 0.0
2017-Sep-26 09:29N 29°44' W 095°17'0 0.0
2017-Sep-26 08:59N 29°44' W 095°17'0 0.0
2017-Sep-26 08:26N 29°44' W 095°17'0 0.0
2017-Sep-26 07:59N 29°44' W 095°17'0 0.0
2017-Sep-26 07:29N 29°44' W 095°17'0 0.0
2017-Sep-26 06:59N 29°44' W 095°17'0 0.0
2017-Sep-26 06:29N 29°44' W 095°17'0 0.0
2017-Sep-26 05:56N 29°44' W 095°17'0 0.0
2017-Sep-26 05:29N 29°44' W 095°17'0 0.0
2017-Sep-26 04:53N 29°44' W 095°17'0 0.0
2017-Sep-26 04:29N 29°44' W 095°17'0 0.0
2017-Sep-26 03:59N 29°44' W 095°17'0 0.0
2017-Sep-26 03:29N 29°44' W 095°17'0 0.0
2017-Sep-26 02:59N 29°44' W 095°17'0 0.0
2017-Sep-26 02:29N 29°44' W 095°17'0 0.0
2017-Sep-26 01:56N 29°44' W 095°17'0 0.0
2017-Sep-26 01:29N 29°44' W 095°17'0 0.0
2017-Sep-26 00:55N 29°44' W 095°17'0 0.0
2017-Sep-26 00:29N 29°44' W 095°17'0 0.0
2017-Sep-25 23:56N 29°44' W 095°17'0 0.0
2017-Sep-25 23:29N 29°44' W 095°17'0 0.0
2017-Sep-25 22:59N 29°44' W 095°17'0 0.0
2017-Sep-25 22:28N 29°44' W 095°17'0 0.0
2017-Sep-25 22:00N 29°44' W 095°17'0 0.0
2017-Sep-25 21:30N 29°44' W 095°17'1 2.2
2017-Sep-25 21:00N 29°44' W 095°15'3 5.4
2017-Sep-25 20:30N 29°44' W 095°12'3 5.8
2017-Sep-25 20:00N 29°44' W 095°09'3 6.8
2017-Sep-25 19:30N 29°46' W 095°05'4 8.5
2017-Sep-25 19:00N 29°43' W 095°01'5 9.9
2017-Sep-25 18:30N 29°39' W 094°58'612.9
2017-Sep-25 18:00N 29°33' W 094°55'713.2
2017-Sep-25 17:30N 29°28' W 094°51'713.1
2017-Sep-25 17:00N 29°22' W 094°48'  
2017-Sep-21 02:03N 19°34' W 095°58'116.2
2017-Sep-21 01:58N 19°33' W 095°58'816.4
2017-Sep-21 01:31N 19°25' W 095°58'816.5
2017-Sep-21 01:01N 19°17' W 095°58'714.3
2017-Sep-21 00:30N 19°12' W 096°02'4 8.7
2017-Sep-21 00:00N 19°12' W 096°07'1 2.4
2017-Sep-20 23:28N 19°13' W 096°08'0 0.0
2017-Sep-20 22:58N 19°13' W 096°08'0 0.0
2017-Sep-20 22:28N 19°13' W 096°08'0 0.0
2017-Sep-20 21:58N 19°13' W 096°08'0 0.0
2017-Sep-20 21:22N 19°13' W 096°08'0 0.0
2017-Sep-20 20:58N 19°13' W 096°08'0 0.0
2017-Sep-20 20:28N 19°13' W 096°08'0 0.0
2017-Sep-20 19:58N 19°13' W 096°08'0 0.0
2017-Sep-20 19:28N 19°13' W 096°08'0 0.0
2017-Sep-20 18:58N 19°13' W 096°08'0 0.0
2017-Sep-20 18:28N 19°13' W 096°08'0 0.0
2017-Sep-20 17:58N 19°13' W 096°08'0 0.0
2017-Sep-20 17:28N 19°13' W 096°08'0 0.0
2017-Sep-20 16:58N 19°13' W 096°08'0 0.0
2017-Sep-20 16:28N 19°13' W 096°08'0 0.0
2017-Sep-20 15:58N 19°13' W 096°08'0 0.0
2017-Sep-20 15:28N 19°13' W 096°08'0 0.0
2017-Sep-20 14:58N 19°13' W 096°08'0 0.0
2017-Sep-20 13:58N 19°13' W 096°08'0 0.0
2017-Sep-20 13:28N 19°13' W 096°08'0 0.0
2017-Sep-20 12:58N 19°13' W 096°08'0 0.0
2017-Sep-20 12:28N 19°13' W 096°08'0 0.0
2017-Sep-20 11:58N 19°13' W 096°08'0 0.0
2017-Sep-20 11:28N 19°13' W 096°08'0 0.0
2017-Sep-20 10:58N 19°13' W 096°08'0 0.0
2017-Sep-20 10:28N 19°13' W 096°08'0 0.0
2017-Sep-20 09:58N 19°13' W 096°08'0 0.0
2017-Sep-20 09:28N 19°13' W 096°08'0 0.0
2017-Sep-20 08:58N 19°13' W 096°08'0 0.0
2017-Sep-20 08:28N 19°13' W 096°08'0 0.0
2017-Sep-20 07:58N 19°13' W 096°08'0 0.0
2017-Sep-20 07:28N 19°13' W 096°08'0 0.0
2017-Sep-20 06:58N 19°13' W 096°08'0 0.0
2017-Sep-20 06:28N 19°13' W 096°08'0 0.0
2017-Sep-20 05:58N 19°13' W 096°08'0 0.0
2017-Sep-20 05:28N 19°13' W 096°08'0 0.0
2017-Sep-20 04:58N 19°13' W 096°08'0 0.0
2017-Sep-20 04:28N 19°13' W 096°08'0 0.0
2017-Sep-20 03:58N 19°13' W 096°08'0 0.0
2017-Sep-20 03:28N 19°13' W 096°08'0 0.0
2017-Sep-20 02:58N 19°13' W 096°08'0 0.0
2017-Sep-20 02:28N 19°13' W 096°08'0 0.0
2017-Sep-20 01:58N 19°13' W 096°08'0 0.0
2017-Sep-20 01:28N 19°13' W 096°08'0 0.0
2017-Sep-20 00:58N 19°13' W 096°08'0 0.0
2017-Sep-20 00:28N 19°13' W 096°08'0 0.0
2017-Sep-19 23:58N 19°13' W 096°08'0 0.0
2017-Sep-19 23:28N 19°13' W 096°08'0 0.0
2017-Sep-19 22:58N 19°13' W 096°08'0 0.0
2017-Sep-19 22:28N 19°13' W 096°08'0 0.0
2017-Sep-19 21:58N 19°13' W 096°08'0 0.0
2017-Sep-19 21:28N 19°13' W 096°08'0 0.0
2017-Sep-19 20:58N 19°13' W 096°08'0 0.0
2017-Sep-19 20:28N 19°13' W 096°08'0 0.0
2017-Sep-19 19:58N 19°13' W 096°08'0 0.0
2017-Sep-19 19:28N 19°13' W 096°08'0 0.0
2017-Sep-19 18:58N 19°13' W 096°08'0 0.0
2017-Sep-19 18:28N 19°13' W 096°08'0 0.0
2017-Sep-19 17:52N 19°13' W 096°08'0 0.0
2017-Sep-19 17:28N 19°13' W 096°08'0 0.0
2017-Sep-19 16:58N 19°13' W 096°08'0 0.0
2017-Sep-19 16:28N 19°13' W 096°08'0 0.0
2017-Sep-19 15:58N 19°13' W 096°08'0 0.0
2017-Sep-19 15:25N 19°13' W 096°08'0 0.0
2017-Sep-19 14:58N 19°13' W 096°08'0 0.0
2017-Sep-19 14:28N 19°13' W 096°08'0 0.0
2017-Sep-19 13:58N 19°13' W 096°08'0 0.0
2017-Sep-19 13:28N 19°13' W 096°08'0 0.0
2017-Sep-19 12:58N 19°13' W 096°08'0 0.0
2017-Sep-19 12:28N 19°13' W 096°08'0 0.0
2017-Sep-19 11:58N 19°13' W 096°08'0 0.0
2017-Sep-19 11:28N 19°13' W 096°08'0 0.0
2017-Sep-19 10:58N 19°13' W 096°08'0 0.0
2017-Sep-19 10:25N 19°13' W 096°08'0 0.0
2017-Sep-19 09:58N 19°13' W 096°08'0 0.0
2017-Sep-19 09:28N 19°13' W 096°08'0 0.0
2017-Sep-19 08:55N 19°13' W 096°08'0 0.0
2017-Sep-19 08:28N 19°13' W 096°08'0 0.0
2017-Sep-19 07:58N 19°13' W 096°08'0 0.0
2017-Sep-19 07:28N 19°13' W 096°08'0 0.0
2017-Sep-19 06:58N 19°13' W 096°08'0 0.0
2017-Sep-19 06:28N 19°13' W 096°08'0 0.0
2017-Sep-19 05:58N 19°13' W 096°08'0 0.0
2017-Sep-19 05:28N 19°13' W 096°08'0 0.0
2017-Sep-19 04:58N 19°13' W 096°08'0 0.0
2017-Sep-19 04:28N 19°13' W 096°08'0 0.0
2017-Sep-19 03:58N 19°13' W 096°08'0 0.0
2017-Sep-19 03:28N 19°13' W 096°08'0 0.0
2017-Sep-19 02:58N 19°13' W 096°08'0 0.0
2017-Sep-19 02:28N 19°13' W 096°08'0 0.0
2017-Sep-19 01:58N 19°13' W 096°08'0 0.1
2017-Sep-19 01:25N 19°13' W 096°08'1 1.6
2017-Sep-19 01:00N 19°12' W 096°08'4 8.2
2017-Sep-19 00:30N 19°11' W 096°04'2 2.3
2017-Sep-18 23:49N 19°09' W 096°03'0 0.1
2017-Sep-18 23:25N 19°09' W 096°03'0 0.0
2017-Sep-18 22:55N 19°09' W 096°03'0 0.0
2017-Sep-18 22:25N 19°09' W 096°03'0 0.0
2017-Sep-18 21:56N 19°09' W 096°03'0 0.0
2017-Sep-18 21:25N 19°09' W 096°03'0 0.0
2017-Sep-18 20:56N 19°09' W 096°03'0 0.0
2017-Sep-18 20:25N 19°09' W 096°03'0 0.1
2017-Sep-18 19:55N 19°09' W 096°03'0 0.0
2017-Sep-18 19:25N 19°09' W 096°03'0 0.0
2017-Sep-18 18:43N 19°09' W 096°03'0 0.0
2017-Sep-18 18:28N 19°09' W 096°03'0 0.0
2017-Sep-18 17:55N 19°09' W 096°03'0 0.0
2017-Sep-18 17:25N 19°09' W 096°03'0 0.0
2017-Sep-18 16:55N 19°09' W 096°03'0 0.0
2017-Sep-18 16:25N 19°09' W 096°03'0 0.0
2017-Sep-18 15:55N 19°09' W 096°03'0 0.0
2017-Sep-18 15:25N 19°09' W 096°03'0 0.0
2017-Sep-18 14:55N 19°09' W 096°03'0 0.0
2017-Sep-18 14:25N 19°09' W 096°03'0 0.0
2017-Sep-18 13:55N 19°09' W 096°03'0 0.0
2017-Sep-18 13:25N 19°09' W 096°03'0 0.1
2017-Sep-18 12:55N 19°09' W 096°03'0 0.0
2017-Sep-18 12:25N 19°09' W 096°03'0 0.1
2017-Sep-18 11:55N 19°09' W 096°03'0 0.3
2017-Sep-18 11:25N 19°09' W 096°03'0 0.0
2017-Sep-18 10:55N 19°09' W 096°03'0 0.0
2017-Sep-18 10:25N 19°09' W 096°03'0 0.0
2017-Sep-18 09:55N 19°09' W 096°03'0 0.0
2017-Sep-18 09:19N 19°09' W 096°03'0 0.0
2017-Sep-18 08:55N 19°09' W 096°03'0 0.0
2017-Sep-18 08:25N 19°09' W 096°03'0 0.0
2017-Sep-18 07:55N 19°09' W 096°03'0 0.1
2017-Sep-18 07:25N 19°09' W 096°03'0 0.0
2017-Sep-18 06:55N 19°09' W 096°03'0 0.0
2017-Sep-18 06:25N 19°09' W 096°03'0 0.0
2017-Sep-18 05:55N 19°09' W 096°03'0 0.0
2017-Sep-18 05:25N 19°09' W 096°03'0 0.0
2017-Sep-18 04:55N 19°09' W 096°03'0 0.0
2017-Sep-18 04:25N 19°09' W 096°03'0 0.0
2017-Sep-18 03:55N 19°09' W 096°03'0 0.0
2017-Sep-18 03:25N 19°09' W 096°03'0 0.0
2017-Sep-18 02:55N 19°09' W 096°03'0 0.0
2017-Sep-18 02:25N 19°09' W 096°03'0 0.0
2017-Sep-18 01:55N 19°09' W 096°03'0 0.0
2017-Sep-18 01:25N 19°09' W 096°03'0 0.0
2017-Sep-18 00:55N 19°09' W 096°03'0 0.0
2017-Sep-18 00:25N 19°09' W 096°03'0 0.0
2017-Sep-17 23:55N 19°09' W 096°03'0 0.0
2017-Sep-17 23:25N 19°09' W 096°03'0 0.0
2017-Sep-17 22:55N 19°09' W 096°03'0 0.0
2017-Sep-17 22:25N 19°09' W 096°03'0 0.0
2017-Sep-17 21:55N 19°09' W 096°03'0 0.0
2017-Sep-17 21:25N 19°09' W 096°03'0 0.0
2017-Sep-17 20:55N 19°09' W 096°03'0 0.0
2017-Sep-17 20:25N 19°09' W 096°03'0 0.0
2017-Sep-17 19:55N 19°09' W 096°03'0 0.0
2017-Sep-17 19:25N 19°09' W 096°03'0 0.0
2017-Sep-17 18:55N 19°09' W 096°03'0 0.0
2017-Sep-17 18:28N 19°09' W 096°03'0 0.0
2017-Sep-17 17:55N 19°09' W 096°03'0 0.0
2017-Sep-17 17:25N 19°09' W 096°03'0 0.0
2017-Sep-17 16:49N 19°09' W 096°03'0 0.0
2017-Sep-17 16:25N 19°09' W 096°03'0 0.0
2017-Sep-17 15:55N 19°09' W 096°03'0 0.0
2017-Sep-17 15:25N 19°09' W 096°03'0 0.0
2017-Sep-17 14:55N 19°09' W 096°03'0 0.0
2017-Sep-17 14:25N 19°09' W 096°03'0 0.0
2017-Sep-17 13:55N 19°09' W 096°03'0 0.0
2017-Sep-17 13:25N 19°09' W 096°03'0 0.0
2017-Sep-17 12:55N 19°09' W 096°03'0 0.0
2017-Sep-17 12:25N 19°09' W 096°03'0 0.0
2017-Sep-17 11:55N 19°09' W 096°03'0 0.0
2017-Sep-17 11:25N 19°09' W 096°03'0 0.0
2017-Sep-17 10:55N 19°09' W 096°03'0 0.0
2017-Sep-17 10:25N 19°09' W 096°03'0 0.0
2017-Sep-17 09:55N 19°09' W 096°03'0 0.0
2017-Sep-17 09:19N 19°09' W 096°03'0 0.0
2017-Sep-17 08:55N 19°09' W 096°03'0 0.0
2017-Sep-17 08:25N 19°09' W 096°03'0 0.0
2017-Sep-17 07:55N 19°09' W 096°03'0 0.0
2017-Sep-17 07:25N 19°09' W 096°03'0 0.0
2017-Sep-17 06:55N 19°09' W 096°03'0 0.0
2017-Sep-17 06:25N 19°09' W 096°03'0 0.0
2017-Sep-17 05:55N 19°09' W 096°03'0 0.0
2017-Sep-17 05:25N 19°09' W 096°03'0 0.0
2017-Sep-17 04:55N 19°09' W 096°03'0 0.0
2017-Sep-17 04:25N 19°09' W 096°03'0 0.0
2017-Sep-17 03:49N 19°09' W 096°03'0 0.0
2017-Sep-17 03:25N 19°09' W 096°03'0 0.0
2017-Sep-17 02:55N 19°09' W 096°03'0 0.0
2017-Sep-17 02:25N 19°09' W 096°03'0 0.0
2017-Sep-17 01:55N 19°09' W 096°03'0 0.0
2017-Sep-17 01:25N 19°09' W 096°03'0 0.0
2017-Sep-17 00:55N 19°09' W 096°03'0 0.0
2017-Sep-17 00:25N 19°09' W 096°03'0 0.0
2017-Sep-16 23:55N 19°09' W 096°03'0 0.0
2017-Sep-16 23:25N 19°09' W 096°03'0 0.0
2017-Sep-16 22:55N 19°09' W 096°03'0 0.0
2017-Sep-16 22:25N 19°09' W 096°03'0 0.0
2017-Sep-16 21:55N 19°09' W 096°03'0 0.0
2017-Sep-16 21:25N 19°09' W 096°03'0 0.0
2017-Sep-16 20:55N 19°09' W 096°03'0 0.0
2017-Sep-16 20:19N 19°09' W 096°03'  
Track history (hours):
 
Tides and Currents Weather Stations Pressure Air Temp Water Temp Dewpoint Dewpoint Depression Visibility Wind Speed Wind Dir Waves Ship Positions

Cosco Tengfei

Last reported at 2017-Sep-26 19:59 UTC. Time now 2017-Sep-26 21:41 UTC.
Position N 29°44' W 095°17'.

Length 183 m; draft 7.9 m.

Type: Cargo ship. MMSI: 355518000.

Date/timePositionNaut miles runAvg speedWind from/ knotsBaromVisibWave heightAir tempDewpointWater temp
2017-Sep-26 19:59N 29°44' W 095°17'0 0.0
2017-Sep-26 19:29N 29°44' W 095°17'0 0.0
2017-Sep-26 18:41N 29°44' W 095°17'0 0.0
2017-Sep-26 18:29N 29°44' W 095°17'0 0.0
2017-Sep-26 17:14N 29°44' W 095°17'0 0.0
2017-Sep-26 16:59N 29°44' W 095°17'0 0.0
2017-Sep-26 16:20N 29°44' W 095°17'0 0.0
2017-Sep-26 15:59N 29°44' W 095°17'0 0.0
2017-Sep-26 15:29N 29°44' W 095°17'0 0.0
2017-Sep-26 14:50N 29°44' W 095°17'0 0.0
2017-Sep-26 14:29N 29°44' W 095°17'0 0.0
2017-Sep-26 13:35N 29°44' W 095°17'0 0.0
2017-Sep-26 13:29N 29°44' W 095°17'0 0.0
2017-Sep-26 12:20N 29°44' W 095°17'0 0.0
2017-Sep-26 11:47N 29°44' W 095°17'0 0.0
2017-Sep-26 11:29N 29°44' W 095°17'0 0.0
2017-Sep-26 10:56N 29°44' W 095°17'0 0.0
2017-Sep-26 10:26N 29°44' W 095°17'0 0.0
2017-Sep-26 09:56N 29°44' W 095°17'0 0.0
2017-Sep-26 09:29N 29°44' W 095°17'0 0.0
2017-Sep-26 08:59N 29°44' W 095°17'0 0.0
2017-Sep-26 08:26N 29°44' W 095°17'0 0.0
2017-Sep-26 07:59N 29°44' W 095°17'0 0.0
2017-Sep-26 07:29N 29°44' W 095°17'0 0.0
2017-Sep-26 06:59N 29°44' W 095°17'0 0.0
2017-Sep-26 06:29N 29°44' W 095°17'0 0.0
2017-Sep-26 05:56N 29°44' W 095°17'0 0.0
2017-Sep-26 05:29N 29°44' W 095°17'0 0.0
2017-Sep-26 04:53N 29°44' W 095°17'0 0.0
2017-Sep-26 04:29N 29°44' W 095°17'0 0.0
2017-Sep-26 03:59N 29°44' W 095°17'0 0.0
2017-Sep-26 03:29N 29°44' W 095°17'0 0.0
2017-Sep-26 02:59N 29°44' W 095°17'0 0.0
2017-Sep-26 02:29N 29°44' W 095°17'0 0.0
2017-Sep-26 01:56N 29°44' W 095°17'0 0.0
2017-Sep-26 01:29N 29°44' W 095°17'0 0.0
2017-Sep-26 00:55N 29°44' W 095°17'0 0.0
2017-Sep-26 00:29N 29°44' W 095°17'0 0.0
2017-Sep-25 23:56N 29°44' W 095°17'0 0.0
2017-Sep-25 23:29N 29°44' W 095°17'0 0.0
2017-Sep-25 22:59N 29°44' W 095°17'0 0.0
2017-Sep-25 22:28N 29°44' W 095°17'0 0.0
2017-Sep-25 22:00N 29°44' W 095°17'0 0.0
2017-Sep-25 21:30N 29°44' W 095°17'1 2.2
2017-Sep-25 21:00N 29°44' W 095°15'3 5.4
2017-Sep-25 20:30N 29°44' W 095°12'3 5.8
2017-Sep-25 20:00N 29°44' W 095°09'3 6.8
2017-Sep-25 19:30N 29°46' W 095°05'4 8.5
2017-Sep-25 19:00N 29°43' W 095°01'5 9.9
2017-Sep-25 18:30N 29°39' W 094°58'612.9
2017-Sep-25 18:00N 29°33' W 094°55'713.2
2017-Sep-25 17:30N 29°28' W 094°51'713.1
2017-Sep-25 17:00N 29°22' W 094°48'  
2017-Sep-21 02:03N 19°34' W 095°58'116.2
2017-Sep-21 01:58N 19°33' W 095°58'816.4
2017-Sep-21 01:31N 19°25' W 095°58'816.5
2017-Sep-21 01:01N 19°17' W 095°58'714.3
2017-Sep-21 00:30N 19°12' W 096°02'4 8.7
2017-Sep-21 00:00N 19°12' W 096°07'1 2.4
2017-Sep-20 23:28N 19°13' W 096°08'0 0.0
2017-Sep-20 22:58N 19°13' W 096°08'0 0.0
2017-Sep-20 22:28N 19°13' W 096°08'0 0.0
2017-Sep-20 21:58N 19°13' W 096°08'0 0.0
2017-Sep-20 21:22N 19°13' W 096°08'0 0.0
2017-Sep-20 20:58N 19°13' W 096°08'0 0.0
2017-Sep-20 20:28N 19°13' W 096°08'0 0.0
2017-Sep-20 19:58N 19°13' W 096°08'0 0.0
2017-Sep-20 19:28N 19°13' W 096°08'0 0.0
2017-Sep-20 18:58N 19°13' W 096°08'0 0.0
2017-Sep-20 18:28N 19°13' W 096°08'0 0.0
2017-Sep-20 17:58N 19°13' W 096°08'0 0.0
2017-Sep-20 17:28N 19°13' W 096°08'0 0.0
2017-Sep-20 16:58N 19°13' W 096°08'0 0.0
2017-Sep-20 16:28N 19°13' W 096°08'0 0.0
2017-Sep-20 15:58N 19°13' W 096°08'0 0.0
2017-Sep-20 15:28N 19°13' W 096°08'0 0.0
2017-Sep-20 14:58N 19°13' W 096°08'0 0.0
2017-Sep-20 13:58N 19°13' W 096°08'0 0.0
2017-Sep-20 13:28N 19°13' W 096°08'0 0.0
2017-Sep-20 12:58N 19°13' W 096°08'0 0.0
2017-Sep-20 12:28N 19°13' W 096°08'0 0.0
2017-Sep-20 11:58N 19°13' W 096°08'0 0.0
2017-Sep-20 11:28N 19°13' W 096°08'0 0.0
2017-Sep-20 10:58N 19°13' W 096°08'0 0.0
2017-Sep-20 10:28N 19°13' W 096°08'0 0.0
2017-Sep-20 09:58N 19°13' W 096°08'0 0.0
2017-Sep-20 09:28N 19°13' W 096°08'0 0.0
2017-Sep-20 08:58N 19°13' W 096°08'0 0.0
2017-Sep-20 08:28N 19°13' W 096°08'0 0.0
2017-Sep-20 07:58N 19°13' W 096°08'0 0.0
2017-Sep-20 07:28N 19°13' W 096°08'0 0.0
2017-Sep-20 06:58N 19°13' W 096°08'0 0.0
2017-Sep-20 06:28N 19°13' W 096°08'0 0.0
2017-Sep-20 05:58N 19°13' W 096°08'0 0.0
2017-Sep-20 05:28N 19°13' W 096°08'0 0.0
2017-Sep-20 04:58N 19°13' W 096°08'0 0.0
2017-Sep-20 04:28N 19°13' W 096°08'0 0.0
2017-Sep-20 03:58N 19°13' W 096°08'0 0.0
2017-Sep-20 03:28N 19°13' W 096°08'0 0.0
2017-Sep-20 02:58N 19°13' W 096°08'0 0.0
2017-Sep-20 02:28N 19°13' W 096°08'0 0.0
2017-Sep-20 01:58N 19°13' W 096°08'0 0.0
2017-Sep-20 01:28N 19°13' W 096°08'0 0.0
2017-Sep-20 00:58N 19°13' W 096°08'0 0.0
2017-Sep-20 00:28N 19°13' W 096°08'0 0.0
2017-Sep-19 23:58N 19°13' W 096°08'0 0.0
2017-Sep-19 23:28N 19°13' W 096°08'0 0.0
2017-Sep-19 22:58N 19°13' W 096°08'0 0.0
2017-Sep-19 22:28N 19°13' W 096°08'0 0.0
2017-Sep-19 21:58N 19°13' W 096°08'0 0.0
2017-Sep-19 21:28N 19°13' W 096°08'0 0.0
2017-Sep-19 20:58N 19°13' W 096°08'0 0.0
2017-Sep-19 20:28N 19°13' W 096°08'0 0.0
2017-Sep-19 19:58N 19°13' W 096°08'0 0.0
2017-Sep-19 19:28N 19°13' W 096°08'0 0.0
2017-Sep-19 18:58N 19°13' W 096°08'0 0.0
2017-Sep-19 18:28N 19°13' W 096°08'0 0.0
2017-Sep-19 17:52N 19°13' W 096°08'0 0.0
2017-Sep-19 17:28N 19°13' W 096°08'0 0.0
2017-Sep-19 16:58N 19°13' W 096°08'0 0.0
2017-Sep-19 16:28N 19°13' W 096°08'0 0.0
2017-Sep-19 15:58N 19°13' W 096°08'0 0.0
2017-Sep-19 15:25N 19°13' W 096°08'0 0.0
2017-Sep-19 14:58N 19°13' W 096°08'0 0.0
2017-Sep-19 14:28N 19°13' W 096°08'0 0.0
2017-Sep-19 13:58N 19°13' W 096°08'0 0.0
2017-Sep-19 13:28N 19°13' W 096°08'0 0.0
2017-Sep-19 12:58N 19°13' W 096°08'0 0.0
2017-Sep-19 12:28N 19°13' W 096°08'0 0.0
2017-Sep-19 11:58N 19°13' W 096°08'0 0.0
2017-Sep-19 11:28N 19°13' W 096°08'0 0.0
2017-Sep-19 10:58N 19°13' W 096°08'0 0.0
2017-Sep-19 10:25N 19°13' W 096°08'0 0.0
2017-Sep-19 09:58N 19°13' W 096°08'0 0.0
2017-Sep-19 09:28N 19°13' W 096°08'0 0.0
2017-Sep-19 08:55N 19°13' W 096°08'0 0.0
2017-Sep-19 08:28N 19°13' W 096°08'0 0.0
2017-Sep-19 07:58N 19°13' W 096°08'0 0.0
2017-Sep-19 07:28N 19°13' W 096°08'0 0.0
2017-Sep-19 06:58N 19°13' W 096°08'0 0.0
2017-Sep-19 06:28N 19°13' W 096°08'0 0.0
2017-Sep-19 05:58N 19°13' W 096°08'0 0.0
2017-Sep-19 05:28N 19°13' W 096°08'0 0.0
2017-Sep-19 04:58N 19°13' W 096°08'0 0.0
2017-Sep-19 04:28N 19°13' W 096°08'0 0.0
2017-Sep-19 03:58N 19°13' W 096°08'0 0.0
2017-Sep-19 03:28N 19°13' W 096°08'0 0.0
2017-Sep-19 02:58N 19°13' W 096°08'0 0.0
2017-Sep-19 02:28N 19°13' W 096°08'0 0.0
2017-Sep-19 01:58N 19°13' W 096°08'0 0.1
2017-Sep-19 01:25N 19°13' W 096°08'1 1.6
2017-Sep-19 01:00N 19°12' W 096°08'4 8.2
2017-Sep-19 00:30N 19°11' W 096°04'2 2.3
2017-Sep-18 23:49N 19°09' W 096°03'0 0.1
2017-Sep-18 23:25N 19°09' W 096°03'0 0.0
2017-Sep-18 22:55N 19°09' W 096°03'0 0.0
2017-Sep-18 22:25N 19°09' W 096°03'0 0.0
2017-Sep-18 21:56N 19°09' W 096°03'0 0.0
2017-Sep-18 21:25N 19°09' W 096°03'0 0.0
2017-Sep-18 20:56N 19°09' W 096°03'0 0.0
2017-Sep-18 20:25N 19°09' W 096°03'0 0.1
2017-Sep-18 19:55N 19°09' W 096°03'0 0.0
2017-Sep-18 19:25N 19°09' W 096°03'0 0.0
2017-Sep-18 18:43N 19°09' W 096°03'0 0.0
2017-Sep-18 18:28N 19°09' W 096°03'0 0.0
2017-Sep-18 17:55N 19°09' W 096°03'0 0.0
2017-Sep-18 17:25N 19°09' W 096°03'0 0.0
2017-Sep-18 16:55N 19°09' W 096°03'0 0.0
2017-Sep-18 16:25N 19°09' W 096°03'0 0.0
2017-Sep-18 15:55N 19°09' W 096°03'0 0.0
2017-Sep-18 15:25N 19°09' W 096°03'0 0.0
2017-Sep-18 14:55N 19°09' W 096°03'0 0.0
2017-Sep-18 14:25N 19°09' W 096°03'0 0.0
2017-Sep-18 13:55N 19°09' W 096°03'0 0.0
2017-Sep-18 13:25N 19°09' W 096°03'0 0.1
2017-Sep-18 12:55N 19°09' W 096°03'0 0.0
2017-Sep-18 12:25N 19°09' W 096°03'0 0.1
2017-Sep-18 11:55N 19°09' W 096°03'0 0.3
2017-Sep-18 11:25N 19°09' W 096°03'0 0.0
2017-Sep-18 10:55N 19°09' W 096°03'0 0.0
2017-Sep-18 10:25N 19°09' W 096°03'0 0.0
2017-Sep-18 09:55N 19°09' W 096°03'0 0.0
2017-Sep-18 09:19N 19°09' W 096°03'0 0.0
2017-Sep-18 08:55N 19°09' W 096°03'0 0.0
2017-Sep-18 08:25N 19°09' W 096°03'0 0.0
2017-Sep-18 07:55N 19°09' W 096°03'0 0.1
2017-Sep-18 07:25N 19°09' W 096°03'0 0.0
2017-Sep-18 06:55N 19°09' W 096°03'0 0.0
2017-Sep-18 06:25N 19°09' W 096°03'0 0.0
2017-Sep-18 05:55N 19°09' W 096°03'0 0.0
2017-Sep-18 05:25N 19°09' W 096°03'0 0.0
2017-Sep-18 04:55N 19°09' W 096°03'0 0.0
2017-Sep-18 04:25N 19°09' W 096°03'0 0.0
2017-Sep-18 03:55N 19°09' W 096°03'0 0.0
2017-Sep-18 03:25N 19°09' W 096°03'0 0.0
2017-Sep-18 02:55N 19°09' W 096°03'0 0.0
2017-Sep-18 02:25N 19°09' W 096°03'0 0.0
2017-Sep-18 01:55N 19°09' W 096°03'0 0.0
2017-Sep-18 01:25N 19°09' W 096°03'0 0.0
2017-Sep-18 00:55N 19°09' W 096°03'0 0.0
2017-Sep-18 00:25N 19°09' W 096°03'0 0.0
2017-Sep-17 23:55N 19°09' W 096°03'0 0.0
2017-Sep-17 23:25N 19°09' W 096°03'0 0.0
2017-Sep-17 22:55N 19°09' W 096°03'0 0.0
2017-Sep-17 22:25N 19°09' W 096°03'0 0.0
2017-Sep-17 21:55N 19°09' W 096°03'0 0.0
2017-Sep-17 21:25N 19°09' W 096°03'0 0.0
2017-Sep-17 20:55N 19°09' W 096°03'0 0.0
2017-Sep-17 20:25N 19°09' W 096°03'0 0.0
2017-Sep-17 19:55N 19°09' W 096°03'0 0.0
2017-Sep-17 19:25N 19°09' W 096°03'0 0.0
2017-Sep-17 18:55N 19°09' W 096°03'0 0.0
2017-Sep-17 18:28N 19°09' W 096°03'0 0.0
2017-Sep-17 17:55N 19°09' W 096°03'0 0.0
2017-Sep-17 17:25N 19°09' W 096°03'0 0.0
2017-Sep-17 16:49N 19°09' W 096°03'0 0.0
2017-Sep-17 16:25N 19°09' W 096°03'0 0.0
2017-Sep-17 15:55N 19°09' W 096°03'0 0.0
2017-Sep-17 15:25N 19°09' W 096°03'0 0.0
2017-Sep-17 14:55N 19°09' W 096°03'0 0.0
2017-Sep-17 14:25N 19°09' W 096°03'0 0.0
2017-Sep-17 13:55N 19°09' W 096°03'0 0.0
2017-Sep-17 13:25N 19°09' W 096°03'0 0.0
2017-Sep-17 12:55N 19°09' W 096°03'0 0.0
2017-Sep-17 12:25N 19°09' W 096°03'0 0.0
2017-Sep-17 11:55N 19°09' W 096°03'0 0.0
2017-Sep-17 11:25N 19°09' W 096°03'0 0.0
2017-Sep-17 10:55N 19°09' W 096°03'0 0.0
2017-Sep-17 10:25N 19°09' W 096°03'0 0.0
2017-Sep-17 09:55N 19°09' W 096°03'0 0.0
2017-Sep-17 09:19N 19°09' W 096°03'0 0.0
2017-Sep-17 08:55N 19°09' W 096°03'0 0.0
2017-Sep-17 08:25N 19°09' W 096°03'0 0.0
2017-Sep-17 07:55N 19°09' W 096°03'0 0.0
2017-Sep-17 07:25N 19°09' W 096°03'0 0.0
2017-Sep-17 06:55N 19°09' W 096°03'0 0.0
2017-Sep-17 06:25N 19°09' W 096°03'0 0.0
2017-Sep-17 05:55N 19°09' W 096°03'0 0.0
2017-Sep-17 05:25N 19°09' W 096°03'0 0.0
2017-Sep-17 04:55N 19°09' W 096°03'0 0.0
2017-Sep-17 04:25N 19°09' W 096°03'0 0.0
2017-Sep-17 03:49N 19°09' W 096°03'0 0.0
2017-Sep-17 03:25N 19°09' W 096°03'0 0.0
2017-Sep-17 02:55N 19°09' W 096°03'0 0.0
2017-Sep-17 02:25N 19°09' W 096°03'0 0.0
2017-Sep-17 01:55N 19°09' W 096°03'0 0.0
2017-Sep-17 01:25N 19°09' W 096°03'0 0.0
2017-Sep-17 00:55N 19°09' W 096°03'0 0.0
2017-Sep-17 00:25N 19°09' W 096°03'0 0.0
2017-Sep-16 23:55N 19°09' W 096°03'0 0.0
2017-Sep-16 23:25N 19°09' W 096°03'0 0.0
2017-Sep-16 22:55N 19°09' W 096°03'0 0.0
2017-Sep-16 22:25N 19°09' W 096°03'0 0.0
2017-Sep-16 21:55N 19°09' W 096°03'0 0.0
2017-Sep-16 21:25N 19°09' W 096°03'0 0.0
2017-Sep-16 20:55N 19°09' W 096°03'0 0.0
2017-Sep-16 20:19N 19°09' W 096°03'  

Dump ship's entire track history